sensor_id;sensor_type;location;lat;lon;timestamp;pressure;altitude;pressure_sealevel;temperature;humidity
49367;BME280;35245;52.026;8.540;2022-11-15T00:00:50;-14100.28;;;-145.42;100.00
49367;BME280;35245;52.026;8.540;2022-11-15T00:03:19;-14100.28;;;-145.42;100.00
49367;BME280;35245;52.026;8.540;2022-11-15T00:05:47;-14100.28;;;-145.42;100.00
49367;BME280;35245;52.026;8.540;2022-11-15T00:08:14;-14100.28;;;-145.42;100.00
49367;BME280;35245;52.026;8.540;2022-11-15T00:10:54;-14100.28;;;-145.42;100.00
49367;BME280;35245;52.026;8.540;2022-11-15T00:13:22;-14100.28;;;-145.42;100.00
49367;BME280;35245;52.026;8.540;2022-11-15T00:15:49;-14100.28;;;-145.42;100.00
49367;BME280;35245;52.026;8.540;2022-11-15T00:18:17;-14100.28;;;-145.42;100.00
49367;BME280;35245;52.026;8.540;2022-11-15T00:20:44;-14100.28;;;-145.42;100.00
49367;BME280;35245;52.026;8.540;2022-11-15T00:23:11;-14100.28;;;-145.42;100.00
49367;BME280;35245;52.026;8.540;2022-11-15T00:25:39;-14100.28;;;-145.42;100.00
49367;BME280;35245;52.026;8.540;2022-11-15T00:28:08;-14100.28;;;-145.42;100.00
49367;BME280;35245;52.026;8.540;2022-11-15T00:30:35;-14100.28;;;-145.42;100.00
49367;BME280;35245;52.026;8.540;2022-11-15T00:33:03;-14100.28;;;-145.42;100.00
49367;BME280;35245;52.026;8.540;2022-11-15T00:35:32;-14100.28;;;-145.42;100.00
49367;BME280;35245;52.026;8.540;2022-11-15T00:38:00;-14100.28;;;-145.42;100.00
49367;BME280;35245;52.026;8.540;2022-11-15T00:40:27;-14100.28;;;-145.42;100.00
49367;BME280;35245;52.026;8.540;2022-11-15T00:42:55;-14100.28;;;-145.42;100.00
49367;BME280;35245;52.026;8.540;2022-11-15T00:45:24;-14100.28;;;-145.42;100.00
49367;BME280;35245;52.026;8.540;2022-11-15T00:47:52;-14100.28;;;-145.42;100.00
49367;BME280;35245;52.026;8.540;2022-11-15T00:50:19;-14100.28;;;-145.42;100.00
49367;BME280;35245;52.026;8.540;2022-11-15T00:52:46;-14100.28;;;-145.42;100.00
49367;BME280;35245;52.026;8.540;2022-11-15T00:55:14;-14100.28;;;-145.42;100.00
49367;BME280;35245;52.026;8.540;2022-11-15T00:57:42;-14100.28;;;-145.42;100.00
49367;BME280;35245;52.026;8.540;2022-11-15T01:00:10;-14100.28;;;-145.42;100.00
49367;BME280;35245;52.026;8.540;2022-11-15T01:02:39;-14100.28;;;-145.42;100.00
49367;BME280;35245;52.026;8.540;2022-11-15T01:05:07;-14100.28;;;-145.42;100.00
49367;BME280;35245;52.026;8.540;2022-11-15T01:07:35;-14100.28;;;-145.42;100.00
49367;BME280;35245;52.026;8.540;2022-11-15T01:10:03;-14100.28;;;-145.42;100.00
49367;BME280;35245;52.026;8.540;2022-11-15T01:12:30;-14100.28;;;-145.42;100.00
49367;BME280;35245;52.026;8.540;2022-11-15T01:14:58;-14100.28;;;-145.42;100.00
49367;BME280;35245;52.026;8.540;2022-11-15T01:17:25;-14100.28;;;-145.42;100.00
49367;BME280;35245;52.026;8.540;2022-11-15T01:19:54;-14100.28;;;-145.42;100.00
49367;BME280;35245;52.026;8.540;2022-11-15T01:22:21;-14100.28;;;-145.42;100.00
49367;BME280;35245;52.026;8.540;2022-11-15T01:24:49;-14100.28;;;-145.42;100.00
49367;BME280;35245;52.026;8.540;2022-11-15T01:27:17;-14100.28;;;-145.42;100.00
49367;BME280;35245;52.026;8.540;2022-11-15T01:29:44;-14100.28;;;-145.42;100.00
49367;BME280;35245;52.026;8.540;2022-11-15T01:32:11;-14100.28;;;-145.42;100.00
49367;BME280;35245;52.026;8.540;2022-11-15T01:34:39;-14100.28;;;-145.42;100.00
49367;BME280;35245;52.026;8.540;2022-11-15T01:37:07;-14100.28;;;-145.42;100.00
49367;BME280;35245;52.026;8.540;2022-11-15T01:39:35;-14100.28;;;-145.42;100.00
49367;BME280;35245;52.026;8.540;2022-11-15T01:42:02;-14100.28;;;-145.42;100.00
49367;BME280;35245;52.026;8.540;2022-11-15T01:44:41;-14100.28;;;-145.42;100.00
49367;BME280;35245;52.026;8.540;2022-11-15T01:47:13;-14100.28;;;-145.42;100.00
49367;BME280;35245;52.026;8.540;2022-11-15T01:49:50;-14100.28;;;-145.42;100.00
49367;BME280;35245;52.026;8.540;2022-11-15T01:52:24;-14100.28;;;-145.42;100.00
49367;BME280;35245;52.026;8.540;2022-11-15T01:54:58;-14100.28;;;-145.42;100.00
49367;BME280;35245;52.026;8.540;2022-11-15T01:57:27;-14100.28;;;-145.42;100.00
49367;BME280;35245;52.026;8.540;2022-11-15T01:59:55;-14100.28;;;-145.42;100.00
49367;BME280;35245;52.026;8.540;2022-11-15T02:02:24;-14100.28;;;-145.42;100.00
49367;BME280;35245;52.026;8.540;2022-11-15T02:04:51;-14100.28;;;-145.42;100.00
49367;BME280;35245;52.026;8.540;2022-11-15T02:07:21;-14100.28;;;-145.42;100.00
49367;BME280;35245;52.026;8.540;2022-11-15T02:09:50;-14100.28;;;-145.42;100.00
49367;BME280;35245;52.026;8.540;2022-11-15T02:12:21;-14100.28;;;-145.42;100.00
49367;BME280;35245;52.026;8.540;2022-11-15T02:14:53;-14100.28;;;-145.42;100.00
49367;BME280;35245;52.026;8.540;2022-11-15T02:17:43;-14100.28;;;-145.42;100.00
49367;BME280;35245;52.026;8.540;2022-11-15T02:20:51;-14100.28;;;-145.42;100.00
49367;BME280;35245;52.026;8.540;2022-11-15T02:27:24;-14100.28;;;-145.42;100.00
49367;BME280;35245;52.026;8.540;2022-11-15T02:30:23;-14100.28;;;-145.42;100.00
49367;BME280;35245;52.026;8.540;2022-11-15T02:32:54;-14100.28;;;-145.42;100.00
49367;BME280;35245;52.026;8.540;2022-11-15T02:35:34;-14100.28;;;-145.42;100.00
49367;BME280;35245;52.026;8.540;2022-11-15T02:38:12;-14100.28;;;-145.42;100.00
49367;BME280;35245;52.026;8.540;2022-11-15T02:40:50;-14100.28;;;-145.42;100.00
49367;BME280;35245;52.026;8.540;2022-11-15T02:43:26;-14100.28;;;-145.42;100.00
49367;BME280;35245;52.026;8.540;2022-11-15T02:46:18;-14100.28;;;-145.42;100.00
49367;BME280;35245;52.026;8.540;2022-11-15T02:48:49;-14100.28;;;-145.42;100.00
49367;BME280;35245;52.026;8.540;2022-11-15T02:51:17;-14100.28;;;-145.42;100.00
49367;BME280;35245;52.026;8.540;2022-11-15T02:53:45;-14100.28;;;-145.42;100.00
49367;BME280;35245;52.026;8.540;2022-11-15T02:56:12;-14100.28;;;-145.42;100.00
49367;BME280;35245;52.026;8.540;2022-11-15T02:59:02;-14100.28;;;-145.42;100.00
49367;BME280;35245;52.026;8.540;2022-11-15T03:01:45;-14100.28;;;-145.42;100.00
49367;BME280;35245;52.026;8.540;2022-11-15T03:04:24;-14100.28;;;-145.42;100.00
49367;BME280;35245;52.026;8.540;2022-11-15T03:07:02;-14100.28;;;-145.42;100.00
49367;BME280;35245;52.026;8.540;2022-11-15T03:09:36;-14100.28;;;-145.42;100.00
49367;BME280;35245;52.026;8.540;2022-11-15T03:12:11;-14100.28;;;-145.42;100.00
49367;BME280;35245;52.026;8.540;2022-11-15T03:14:50;-14100.28;;;-145.42;100.00
49367;BME280;35245;52.026;8.540;2022-11-15T03:17:25;-14100.28;;;-145.42;100.00
49367;BME280;35245;52.026;8.540;2022-11-15T03:19:57;-14100.28;;;-145.42;100.00
49367;BME280;35245;52.026;8.540;2022-11-15T03:22:29;-14100.28;;;-145.42;100.00
49367;BME280;35245;52.026;8.540;2022-11-15T03:25:05;-14100.28;;;-145.42;100.00
49367;BME280;35245;52.026;8.540;2022-11-15T03:27:38;-14100.28;;;-145.42;100.00
49367;BME280;35245;52.026;8.540;2022-11-15T03:30:09;-14100.28;;;-145.42;100.00
49367;BME280;35245;52.026;8.540;2022-11-15T03:32:44;-14100.28;;;-145.42;100.00
49367;BME280;35245;52.026;8.540;2022-11-15T03:35:15;-14100.28;;;-145.42;100.00
49367;BME280;35245;52.026;8.540;2022-11-15T03:37:50;-14100.28;;;-145.42;100.00
49367;BME280;35245;52.026;8.540;2022-11-15T03:40:24;-14100.28;;;-145.42;100.00
49367;BME280;35245;52.026;8.540;2022-11-15T03:43:02;-14100.28;;;-145.42;100.00
49367;BME280;35245;52.026;8.540;2022-11-15T03:45:39;-14100.28;;;-145.42;100.00
49367;BME280;35245;52.026;8.540;2022-11-15T03:48:13;-14100.28;;;-145.42;100.00
49367;BME280;35245;52.026;8.540;2022-11-15T03:50:42;-14100.28;;;-145.42;100.00
49367;BME280;35245;52.026;8.540;2022-11-15T03:53:10;-14100.28;;;-145.42;100.00
49367;BME280;35245;52.026;8.540;2022-11-15T03:55:38;-14100.28;;;-145.42;100.00
49367;BME280;35245;52.026;8.540;2022-11-15T03:58:05;-14100.28;;;-145.42;100.00
49367;BME280;35245;52.026;8.540;2022-11-15T04:00:32;-14100.28;;;-145.42;100.00
49367;BME280;35245;52.026;8.540;2022-11-15T04:02:59;-14100.28;;;-145.42;100.00
49367;BME280;35245;52.026;8.540;2022-11-15T04:05:28;-14100.28;;;-145.42;100.00
49367;BME280;35245;52.026;8.540;2022-11-15T04:07:55;-14100.28;;;-145.42;100.00
49367;BME280;35245;52.026;8.540;2022-11-15T04:10:22;-14100.28;;;-145.42;100.00
49367;BME280;35245;52.026;8.540;2022-11-15T04:12:49;-14100.28;;;-145.42;100.00
49367;BME280;35245;52.026;8.540;2022-11-15T04:15:21;-14100.28;;;-145.42;100.00
49367;BME280;35245;52.026;8.540;2022-11-15T04:17:51;-14100.28;;;-145.42;100.00
49367;BME280;35245;52.026;8.540;2022-11-15T04:20:20;-14100.28;;;-145.42;100.00
49367;BME280;35245;52.026;8.540;2022-11-15T04:23:11;-14100.28;;;-145.42;100.00
49367;BME280;35245;52.026;8.540;2022-11-15T04:25:58;-14100.28;;;-145.42;100.00
49367;BME280;35245;52.026;8.540;2022-11-15T04:28:27;-14100.28;;;-145.42;100.00
49367;BME280;35245;52.026;8.540;2022-11-15T04:30:54;-14100.28;;;-145.42;100.00
49367;BME280;35245;52.026;8.540;2022-11-15T04:33:22;-14100.28;;;-145.42;100.00
49367;BME280;35245;52.026;8.540;2022-11-15T04:35:49;-14100.28;;;-145.42;100.00
49367;BME280;35245;52.026;8.540;2022-11-15T04:38:31;-14100.28;;;-145.42;100.00
49367;BME280;35245;52.026;8.540;2022-11-15T04:40:59;-14100.28;;;-145.42;100.00
49367;BME280;35245;52.026;8.540;2022-11-15T04:43:26;-14100.28;;;-145.42;100.00
49367;BME280;35245;52.026;8.540;2022-11-15T04:45:54;-14100.28;;;-145.42;100.00
49367;BME280;35245;52.026;8.540;2022-11-15T04:48:21;-14100.28;;;-145.42;100.00
49367;BME280;35245;52.026;8.540;2022-11-15T04:50:48;-14100.28;;;-145.42;100.00
49367;BME280;35245;52.026;8.540;2022-11-15T04:53:16;-14100.28;;;-145.42;100.00
49367;BME280;35245;52.026;8.540;2022-11-15T04:55:46;-14100.28;;;-145.42;100.00
49367;BME280;35245;52.026;8.540;2022-11-15T04:58:13;-14100.28;;;-145.42;100.00
49367;BME280;35245;52.026;8.540;2022-11-15T05:00:41;-14100.28;;;-145.42;100.00
49367;BME280;35245;52.026;8.540;2022-11-15T05:03:09;-14100.28;;;-145.42;100.00
49367;BME280;35245;52.026;8.540;2022-11-15T05:05:54;-14100.28;;;-145.42;100.00
49367;BME280;35245;52.026;8.540;2022-11-15T05:08:21;-14100.28;;;-145.42;100.00
49367;BME280;35245;52.026;8.540;2022-11-15T05:10:50;-14100.28;;;-145.42;100.00
49367;BME280;35245;52.026;8.540;2022-11-15T05:13:17;-14100.28;;;-145.42;100.00
49367;BME280;35245;52.026;8.540;2022-11-15T05:15:45;-14100.28;;;-145.42;100.00
49367;BME280;35245;52.026;8.540;2022-11-15T05:18:12;-14100.28;;;-145.42;100.00
49367;BME280;35245;52.026;8.540;2022-11-15T05:20:39;-14100.28;;;-145.42;100.00
49367;BME280;35245;52.026;8.540;2022-11-15T05:23:06;-14100.28;;;-145.42;100.00
49367;BME280;35245;52.026;8.540;2022-11-15T05:25:35;-14100.28;;;-145.42;100.00
49367;BME280;35245;52.026;8.540;2022-11-15T05:28:04;-14100.28;;;-145.42;100.00
49367;BME280;35245;52.026;8.540;2022-11-15T05:30:31;-14100.28;;;-145.42;100.00
49367;BME280;35245;52.026;8.540;2022-11-15T05:32:58;-14100.28;;;-145.42;100.00
49367;BME280;35245;52.026;8.540;2022-11-15T05:35:31;-14100.28;;;-145.42;100.00
49367;BME280;35245;52.026;8.540;2022-11-15T05:38:00;-14100.28;;;-145.42;100.00
49367;BME280;35245;52.026;8.540;2022-11-15T05:40:29;-14100.28;;;-145.42;100.00
49367;BME280;35245;52.026;8.540;2022-11-15T05:42:57;-14100.28;;;-145.42;100.00
49367;BME280;35245;52.026;8.540;2022-11-15T05:45:28;-14100.28;;;-145.42;100.00
49367;BME280;35245;52.026;8.540;2022-11-15T05:47:57;-14100.28;;;-145.42;100.00
49367;BME280;35245;52.026;8.540;2022-11-15T05:50:26;-14100.28;;;-145.42;100.00
49367;BME280;35245;52.026;8.540;2022-11-15T05:52:54;-14100.28;;;-145.42;100.00
49367;BME280;35245;52.026;8.540;2022-11-15T05:55:22;-14100.28;;;-145.42;100.00
49367;BME280;35245;52.026;8.540;2022-11-15T05:57:49;-14100.28;;;-145.42;100.00
49367;BME280;35245;52.026;8.540;2022-11-15T06:00:17;-14100.28;;;-145.42;100.00
49367;BME280;35245;52.026;8.540;2022-11-15T06:02:46;-14100.28;;;-145.42;100.00
49367;BME280;35245;52.026;8.540;2022-11-15T06:05:13;-14100.28;;;-145.42;100.00
49367;BME280;35245;52.026;8.540;2022-11-15T06:07:41;-14100.28;;;-145.42;100.00
49367;BME280;35245;52.026;8.540;2022-11-15T06:10:09;-14100.28;;;-145.42;100.00
49367;BME280;35245;52.026;8.540;2022-11-15T06:12:36;-14100.28;;;-145.42;100.00
49367;BME280;35245;52.026;8.540;2022-11-15T06:15:04;-14100.28;;;-145.42;100.00
49367;BME280;35245;52.026;8.540;2022-11-15T06:17:31;-14100.28;;;-145.42;100.00
49367;BME280;35245;52.026;8.540;2022-11-15T06:19:59;-14100.28;;;-145.42;100.00
49367;BME280;35245;52.026;8.540;2022-11-15T06:22:27;-14100.28;;;-145.42;100.00
49367;BME280;35245;52.026;8.540;2022-11-15T06:24:54;-14100.28;;;-145.42;100.00
49367;BME280;35245;52.026;8.540;2022-11-15T06:27:21;-14100.28;;;-145.42;100.00
49367;BME280;35245;52.026;8.540;2022-11-15T06:29:48;-14100.28;;;-145.42;100.00
49367;BME280;35245;52.026;8.540;2022-11-15T06:32:15;-14100.28;;;-145.42;100.00
49367;BME280;35245;52.026;8.540;2022-11-15T06:34:42;-14100.28;;;-145.42;100.00
49367;BME280;35245;52.026;8.540;2022-11-15T06:37:11;-14100.28;;;-145.42;100.00
49367;BME280;35245;52.026;8.540;2022-11-15T06:39:38;-14100.28;;;-145.42;100.00
49367;BME280;35245;52.026;8.540;2022-11-15T06:42:05;-14100.28;;;-145.42;100.00
49367;BME280;35245;52.026;8.540;2022-11-15T06:44:34;-14100.28;;;-145.42;100.00
49367;BME280;35245;52.026;8.540;2022-11-15T06:47:02;-14100.28;;;-145.42;100.00
49367;BME280;35245;52.026;8.540;2022-11-15T06:49:29;-14100.28;;;-145.42;100.00
49367;BME280;35245;52.026;8.540;2022-11-15T06:51:56;-14100.28;;;-145.42;100.00
49367;BME280;35245;52.026;8.540;2022-11-15T06:54:24;-14100.28;;;-145.42;100.00
49367;BME280;35245;52.026;8.540;2022-11-15T06:56:52;-14100.28;;;-145.42;100.00
49367;BME280;35245;52.026;8.540;2022-11-15T06:59:19;-14100.28;;;-145.42;100.00
49367;BME280;35245;52.026;8.540;2022-11-15T07:01:46;-14100.28;;;-145.42;100.00
49367;BME280;35245;52.026;8.540;2022-11-15T07:04:13;-14100.28;;;-145.42;100.00
49367;BME280;35245;52.026;8.540;2022-11-15T07:06:40;-14100.28;;;-145.42;100.00
49367;BME280;35245;52.026;8.540;2022-11-15T07:09:07;-14100.28;;;-145.42;100.00
49367;BME280;35245;52.026;8.540;2022-11-15T07:11:36;-14100.28;;;-145.42;100.00
49367;BME280;35245;52.026;8.540;2022-11-15T07:14:03;-14100.28;;;-145.42;100.00
49367;BME280;35245;52.026;8.540;2022-11-15T07:16:30;-14100.28;;;-145.42;100.00
49367;BME280;35245;52.026;8.540;2022-11-15T07:18:58;-14100.28;;;-145.42;100.00
49367;BME280;35245;52.026;8.540;2022-11-15T07:21:25;-14100.28;;;-145.42;100.00
49367;BME280;35245;52.026;8.540;2022-11-15T07:23:52;-14100.28;;;-145.42;100.00
49367;BME280;35245;52.026;8.540;2022-11-15T07:26:20;-14100.28;;;-145.42;100.00
49367;BME280;35245;52.026;8.540;2022-11-15T07:28:48;-14100.28;;;-145.42;100.00
49367;BME280;35245;52.026;8.540;2022-11-15T07:31:15;-14100.28;;;-145.42;100.00
49367;BME280;35245;52.026;8.540;2022-11-15T07:33:43;-14100.28;;;-145.42;100.00
49367;BME280;35245;52.026;8.540;2022-11-15T07:36:10;-14100.28;;;-145.42;100.00
49367;BME280;35245;52.026;8.540;2022-11-15T07:38:37;-14100.28;;;-145.42;100.00
49367;BME280;35245;52.026;8.540;2022-11-15T07:41:06;-14100.28;;;-145.42;100.00
49367;BME280;35245;52.026;8.540;2022-11-15T07:43:33;-14100.28;;;-145.42;100.00
49367;BME280;35245;52.026;8.540;2022-11-15T07:46:07;-14100.28;;;-145.42;100.00
49367;BME280;35245;52.026;8.540;2022-11-15T07:48:36;-14100.28;;;-145.42;100.00
49367;BME280;35245;52.026;8.540;2022-11-15T07:51:03;-14100.28;;;-145.42;100.00
49367;BME280;35245;52.026;8.540;2022-11-15T07:53:30;-14100.28;;;-145.42;100.00
49367;BME280;35245;52.026;8.540;2022-11-15T07:55:58;-14100.28;;;-145.42;100.00
49367;BME280;35245;52.026;8.540;2022-11-15T07:58:25;-14100.28;;;-145.42;100.00
49367;BME280;35245;52.026;8.540;2022-11-15T08:00:52;-14100.28;;;-145.42;100.00
49367;BME280;35245;52.026;8.540;2022-11-15T08:03:21;-14100.28;;;-145.42;100.00
49367;BME280;35245;52.026;8.540;2022-11-15T08:05:51;-14100.28;;;-145.42;100.00
49367;BME280;35245;52.026;8.540;2022-11-15T08:08:18;-14100.28;;;-145.42;100.00
49367;BME280;35245;52.026;8.540;2022-11-15T08:10:46;-14100.28;;;-145.42;100.00
49367;BME280;35245;52.026;8.540;2022-11-15T08:13:13;-14100.28;;;-145.42;100.00
49367;BME280;35245;52.026;8.540;2022-11-15T08:15:41;-14100.28;;;-145.42;100.00
49367;BME280;35245;52.026;8.540;2022-11-15T08:18:11;-14100.28;;;-145.42;100.00
49367;BME280;35245;52.026;8.540;2022-11-15T08:20:41;-14100.28;;;-145.42;100.00
49367;BME280;35245;52.026;8.540;2022-11-15T08:23:10;-14100.28;;;-145.42;100.00
49367;BME280;35245;52.026;8.540;2022-11-15T08:25:38;-14100.28;;;-145.42;100.00
49367;BME280;35245;52.026;8.540;2022-11-15T08:28:08;-14100.28;;;-145.42;100.00
49367;BME280;35245;52.026;8.540;2022-11-15T08:30:39;-14100.28;;;-145.42;100.00
49367;BME280;35245;52.026;8.540;2022-11-15T08:33:11;-14100.28;;;-145.42;100.00
49367;BME280;35245;52.026;8.540;2022-11-15T08:35:40;-14100.28;;;-145.42;100.00
49367;BME280;35245;52.026;8.540;2022-11-15T08:38:07;-14100.28;;;-145.42;100.00
49367;BME280;35245;52.026;8.540;2022-11-15T08:40:35;-14100.28;;;-145.42;100.00
49367;BME280;35245;52.026;8.540;2022-11-15T08:43:03;-14100.28;;;-145.42;100.00
49367;BME280;35245;52.026;8.540;2022-11-15T08:45:31;-14100.28;;;-145.42;100.00
49367;BME280;35245;52.026;8.540;2022-11-15T08:48:01;-14100.28;;;-145.42;100.00
49367;BME280;35245;52.026;8.540;2022-11-15T08:50:29;-14100.28;;;-145.42;100.00
49367;BME280;35245;52.026;8.540;2022-11-15T08:52:57;-14100.28;;;-145.42;100.00
49367;BME280;35245;52.026;8.540;2022-11-15T08:55:25;-14100.28;;;-145.42;100.00
49367;BME280;35245;52.026;8.540;2022-11-15T08:57:52;-14100.28;;;-145.42;100.00
49367;BME280;35245;52.026;8.540;2022-11-15T09:00:20;-14100.28;;;-145.42;100.00
49367;BME280;35245;52.026;8.540;2022-11-15T09:02:47;-14100.28;;;-145.42;100.00
49367;BME280;35245;52.026;8.540;2022-11-15T09:05:14;-14100.28;;;-145.42;100.00
49367;BME280;35245;52.026;8.540;2022-11-15T09:07:42;-14100.28;;;-145.42;100.00
49367;BME280;35245;52.026;8.540;2022-11-15T09:10:11;-14100.28;;;-145.42;100.00
49367;BME280;35245;52.026;8.540;2022-11-15T09:12:38;-14100.28;;;-145.42;100.00
49367;BME280;35245;52.026;8.540;2022-11-15T09:15:07;-14100.28;;;-145.42;100.00
49367;BME280;35245;52.026;8.540;2022-11-15T09:17:35;-14100.28;;;-145.42;100.00
49367;BME280;35245;52.026;8.540;2022-11-15T09:20:02;-14100.28;;;-145.42;100.00
49367;BME280;35245;52.026;8.540;2022-11-15T09:22:30;-14100.28;;;-145.42;100.00
49367;BME280;35245;52.026;8.540;2022-11-15T09:24:57;-14100.28;;;-145.42;100.00
49367;BME280;35245;52.026;8.540;2022-11-15T09:27:29;-14100.28;;;-145.42;100.00
49367;BME280;35245;52.026;8.540;2022-11-15T09:29:56;-14100.28;;;-145.42;100.00
49367;BME280;35245;52.026;8.540;2022-11-15T09:32:27;-14100.28;;;-145.42;100.00
49367;BME280;35245;52.026;8.540;2022-11-15T09:34:55;-14100.28;;;-145.42;100.00
49367;BME280;35245;52.026;8.540;2022-11-15T09:37:22;-14100.28;;;-145.42;100.00
49367;BME280;35245;52.026;8.540;2022-11-15T09:39:50;-14100.28;;;-145.42;100.00
49367;BME280;35245;52.026;8.540;2022-11-15T09:42:40;-14100.28;;;-145.42;100.00
49367;BME280;35245;52.026;8.540;2022-11-15T09:45:18;-14100.28;;;-145.42;100.00
49367;BME280;35245;52.026;8.540;2022-11-15T09:48:12;-14100.28;;;-145.42;100.00
49367;BME280;35245;52.026;8.540;2022-11-15T09:50:48;-14100.28;;;-145.42;100.00
49367;BME280;35245;52.026;8.540;2022-11-15T09:53:25;-14100.28;;;-145.42;100.00
49367;BME280;35245;52.026;8.540;2022-11-15T09:56:00;-14100.28;;;-145.42;100.00
49367;BME280;35245;52.026;8.540;2022-11-15T09:58:36;-14100.28;;;-145.42;100.00
49367;BME280;35245;52.026;8.540;2022-11-15T10:01:11;-14100.28;;;-145.42;100.00
49367;BME280;35245;52.026;8.540;2022-11-15T10:03:43;-14100.28;;;-145.42;100.00
49367;BME280;35245;52.026;8.540;2022-11-15T10:06:21;-14100.28;;;-145.42;100.00
49367;BME280;35245;52.026;8.540;2022-11-15T10:09:01;-14100.28;;;-145.42;100.00
49367;BME280;35245;52.026;8.540;2022-11-15T10:11:31;-14100.28;;;-145.42;100.00
49367;BME280;35245;52.026;8.540;2022-11-15T10:14:05;-14100.28;;;-145.42;100.00
49367;BME280;35245;52.026;8.540;2022-11-15T10:17:04;-14100.28;;;-145.42;100.00
49367;BME280;35245;52.026;8.540;2022-11-15T10:19:42;-14100.28;;;-145.42;100.00
49367;BME280;35245;52.026;8.540;2022-11-15T10:22:27;-14100.28;;;-145.42;100.00
49367;BME280;35245;52.026;8.540;2022-11-15T10:25:20;-14100.28;;;-145.42;100.00
49367;BME280;35245;52.026;8.540;2022-11-15T10:27:56;-14100.28;;;-145.42;100.00
49367;BME280;35245;52.026;8.540;2022-11-15T10:30:32;-14100.28;;;-145.42;100.00
49367;BME280;35245;52.026;8.540;2022-11-15T10:33:12;-14100.28;;;-145.42;100.00
49367;BME280;35245;52.026;8.540;2022-11-15T10:35:40;-14100.28;;;-145.42;100.00
49367;BME280;35245;52.026;8.540;2022-11-15T10:38:10;-14100.28;;;-145.42;100.00
49367;BME280;35245;52.026;8.540;2022-11-15T10:40:40;-14100.28;;;-145.42;100.00
49367;BME280;35245;52.026;8.540;2022-11-15T10:43:17;-14100.28;;;-145.42;100.00
49367;BME280;35245;52.026;8.540;2022-11-15T10:45:46;-14100.28;;;-145.42;100.00
49367;BME280;35245;52.026;8.540;2022-11-15T10:48:23;-14100.28;;;-145.42;100.00
49367;BME280;35245;52.026;8.540;2022-11-15T10:50:53;-14100.28;;;-145.42;100.00
49367;BME280;35245;52.026;8.540;2022-11-15T10:53:29;-14100.28;;;-145.42;100.00
49367;BME280;35245;52.026;8.540;2022-11-15T10:56:02;-14100.28;;;-145.42;100.00
49367;BME280;35245;52.026;8.540;2022-11-15T10:58:38;-14100.28;;;-145.42;100.00
49367;BME280;35245;52.026;8.540;2022-11-15T11:01:18;-14100.28;;;-145.42;100.00
49367;BME280;35245;52.026;8.540;2022-11-15T11:03:58;-14100.28;;;-145.42;100.00
49367;BME280;35245;52.026;8.540;2022-11-15T11:06:26;-14100.28;;;-145.42;100.00
49367;BME280;35245;52.026;8.540;2022-11-15T11:08:57;-14100.28;;;-145.42;100.00
49367;BME280;35245;52.026;8.540;2022-11-15T11:11:24;-14100.28;;;-145.42;100.00
49367;BME280;35245;52.026;8.540;2022-11-15T11:13:52;-14100.28;;;-145.42;100.00
49367;BME280;35245;52.026;8.540;2022-11-15T11:16:42;-14100.28;;;-145.42;100.00
49367;BME280;35245;52.026;8.540;2022-11-15T11:22:18;-14100.28;;;-145.42;100.00
49367;BME280;35245;52.026;8.540;2022-11-15T11:24:56;-14100.28;;;-145.42;100.00
49367;BME280;35245;52.026;8.540;2022-11-15T11:27:40;-12851.06;;;-145.42;100.00
49367;BME280;35245;52.026;8.540;2022-11-15T11:30:14;-12351.84;;;-145.42;100.00
49367;BME280;35245;52.026;8.540;2022-11-15T11:33:13;-11602.91;;;-145.42;100.00
49367;BME280;35245;52.026;8.540;2022-11-15T11:35:57;-8105.91;;;-145.42;100.00
49367;BME280;35245;52.026;8.540;2022-11-15T11:38:43;-601.56;;;-145.42;100.00
49367;BME280;35245;52.026;8.540;2022-11-15T11:41:29;-3354.84;;;-145.42;100.00
49367;BME280;35245;52.026;8.540;2022-11-15T11:44:24;2905.47;;;-145.42;100.00
49367;BME280;35245;52.026;8.540;2022-11-15T11:46:58;5161.69;;;-145.42;100.00
49367;BME280;35245;52.026;8.540;2022-11-15T11:49:34;6917.44;;;-145.42;99.66
49367;BME280;35245;52.026;8.540;2022-11-15T11:52:13;16965.53;;;-145.42;86.52
49367;BME280;35245;52.026;8.540;2022-11-15T11:55:00;23762.75;;;-145.42;80.04
49367;BME280;35245;52.026;8.540;2022-11-15T11:57:38;31834.03;;;-145.42;76.34
49367;BME280;35245;52.026;8.540;2022-11-15T12:00:19;15708.09;;;-145.42;90.05
49367;BME280;35245;52.026;8.540;2022-11-15T12:03:03;22503.09;;;-145.42;82.58
49367;BME280;35245;52.026;8.540;2022-11-15T12:05:37;26535.38;;;-145.42;79.04
49367;BME280;35245;52.026;8.540;2022-11-15T12:08:27;30067.03;;;-145.42;75.18
49367;BME280;35245;52.026;8.540;2022-11-15T12:11:07;36128.69;;;-145.42;69.44
49367;BME280;35245;52.026;8.540;2022-11-15T12:13:36;36128.69;;;-145.42;70.70
49367;BME280;35245;52.026;8.540;2022-11-15T12:16:11;39562.28;;;-145.42;68.20
49367;BME280;35245;52.026;8.540;2022-11-15T12:18:44;37681.13;;;-145.42;69.32
49367;BME280;35245;52.026;8.540;2022-11-15T12:21:21;39607.72;;;-145.42;68.91
49367;BME280;35245;52.026;8.540;2022-11-15T12:23:57;38269.88;;;-145.42;70.25
49367;BME280;35245;52.026;8.540;2022-11-15T12:26:32;40886.72;;;-145.42;68.19
49367;BME280;35245;52.026;8.540;2022-11-15T12:29:05;39414.03;;;-145.42;68.80
49367;BME280;35245;52.026;8.540;2022-11-15T12:31:39;39192.69;;;-145.42;68.72
49367;BME280;35245;52.026;8.540;2022-11-15T12:34:38;47121.56;;;-145.42;60.23
49367;BME280;35245;52.026;8.540;2022-11-15T12:37:46;47507.72;;;-145.42;60.26
49367;BME280;35245;52.026;8.540;2022-11-15T12:40:24;47650.31;;;-145.42;59.32
49367;BME280;35245;52.026;8.540;2022-11-15T12:45:44;49970.19;;;-145.42;58.17
49367;BME280;35245;52.026;8.540;2022-11-15T12:48:58;42150.31;;;-145.42;71.60
49367;BME280;35245;52.026;8.540;2022-11-15T12:52:06;27291.88;;;-145.42;87.08
49367;BME280;35245;52.026;8.540;2022-11-15T12:55:08;20236.78;;;-145.42;94.96
49367;BME280;35245;52.026;8.540;2022-11-15T12:57:50;16714.03;;;-145.42;99.23